createdAt,value
2022-10-19T00:01:20.881Z,18.20
2022-10-19T00:03:23.291Z,17.73
2022-10-19T00:05:24.886Z,17.15
2022-10-19T00:07:26.304Z,15.85
2022-10-19T00:09:27.915Z,17.80
2022-10-19T00:11:31.138Z,17.90
2022-10-19T00:13:32.945Z,17.85
2022-10-19T00:15:39.302Z,17.38
2022-10-19T00:17:43.218Z,18.27
2022-10-19T00:19:45.046Z,18.52
2022-10-19T00:21:47.071Z,18.67
2022-10-19T00:23:49.159Z,20.38
2022-10-19T00:25:57.285Z,21.42
2022-10-19T00:27:58.758Z,22.10
2022-10-19T00:30:00.247Z,25.55
2022-10-19T00:32:01.744Z,25.58
2022-10-19T00:34:03.464Z,28.70
2022-10-19T00:36:06.586Z,28.67
2022-10-19T00:38:08.055Z,27.05
2022-10-19T00:40:09.963Z,28.35
2022-10-19T00:42:12.480Z,26.42
2022-10-19T00:44:13.910Z,27.20
2022-10-19T00:46:15.368Z,26.00
2022-10-19T00:48:32.699Z,23.65
2022-10-19T00:50:34.226Z,19.48
2022-10-19T00:52:36.116Z,15.50
2022-10-19T00:54:40.845Z,16.75
2022-10-19T00:56:44.632Z,14.30
2022-10-19T00:58:46.408Z,11.80
2022-10-19T01:00:48.147Z,10.40
2022-10-19T01:02:49.733Z,11.27
2022-10-19T01:04:52.378Z,10.48
2022-10-19T01:06:54.738Z,8.98
2022-10-19T01:08:56.180Z,9.13
2022-10-19T01:11:19.226Z,9.85
2022-10-19T01:13:30.195Z,10.82
2022-10-19T01:15:36.077Z,11.02
2022-10-19T01:17:51.012Z,13.38
2022-10-19T01:20:32.383Z,13.50
2022-10-19T01:23:11.369Z,15.02
2022-10-19T01:25:18.942Z,15.50
2022-10-19T01:27:35.496Z,15.13
2022-10-19T01:30:08.182Z,14.05
2022-10-19T01:32:16.432Z,15.93
2022-10-19T01:34:36.243Z,17.30
2022-10-19T01:36:48.438Z,17.52
2022-10-19T01:38:56.310Z,18.02
2022-10-19T01:41:00.313Z,18.35
2022-10-19T01:43:17.770Z,19.92
2022-10-19T01:45:21.578Z,18.70
2022-10-19T01:47:27.667Z,18.00
2022-10-19T01:49:47.174Z,17.55
2022-10-19T01:51:55.508Z,18.25
2022-10-19T01:54:01.001Z,20.13
2022-10-19T01:56:04.600Z,19.80
2022-10-19T01:58:09.780Z,21.15
2022-10-19T02:00:13.621Z,20.25
2022-10-19T02:02:16.774Z,18.27
2022-10-19T02:04:21.098Z,18.13
2022-10-19T02:06:22.702Z,16.80
2022-10-19T02:08:31.056Z,18.42
2022-10-19T02:10:35.202Z,16.98
2022-10-19T02:12:37.587Z,17.42
2022-10-19T02:14:50.197Z,17.30
2022-10-19T02:17:29.049Z,17.13
2022-10-19T02:19:30.546Z,15.70
2022-10-19T02:21:32.352Z,17.30
2022-10-19T02:23:34.245Z,18.05
2022-10-19T02:25:36.714Z,15.95
2022-10-19T02:27:42.068Z,18.38
2022-10-19T02:29:43.676Z,18.90
2022-10-19T02:31:45.480Z,17.67
2022-10-19T02:33:47.194Z,17.02
2022-10-19T02:35:48.901Z,20.58
2022-10-19T02:37:50.739Z,19.80
2022-10-19T02:39:52.359Z,20.13
2022-10-19T02:42:00.703Z,19.67
2022-10-19T02:44:36.876Z,20.65
2022-10-19T02:46:45.774Z,19.23
2022-10-19T02:48:50.284Z,19.98
2022-10-19T02:50:52.210Z,21.63
2022-10-19T02:52:53.691Z,24.17
2022-10-19T02:54:55.179Z,23.92
2022-10-19T02:56:57.399Z,23.58
2022-10-19T02:58:59.032Z,25.48
2022-10-19T03:01:00.506Z,26.38
2022-10-19T03:03:03.072Z,26.80
2022-10-19T03:05:05.033Z,27.90
2022-10-19T03:07:06.492Z,28.50
2022-10-19T03:09:08.430Z,26.90
2022-10-19T03:11:10.196Z,26.58
2022-10-19T03:13:11.700Z,25.92
2022-10-19T03:15:17.690Z,26.98
2022-10-19T03:17:19.221Z,26.35
2022-10-19T03:19:20.843Z,27.05
2022-10-19T03:21:22.390Z,29.48
2022-10-19T03:23:23.822Z,32.53
2022-10-19T03:25:25.351Z,37.30
2022-10-19T03:27:26.872Z,39.75
2022-10-19T03:29:28.395Z,47.88
2022-10-19T03:31:29.875Z,51.58
2022-10-19T03:33:31.380Z,65.35
2022-10-19T03:35:32.918Z,48.05
2022-10-19T03:37:34.663Z,40.55
2022-10-19T03:39:36.323Z,36.47
2022-10-19T03:41:38.347Z,36.33
2022-10-19T03:43:41.239Z,35.65
2022-10-19T03:45:46.642Z,38.08
2022-10-19T03:47:51.394Z,43.60
2022-10-19T03:49:52.902Z,42.22
2022-10-19T03:51:54.397Z,41.47
2022-10-19T03:53:59.116Z,40.88
2022-10-19T03:56:13.890Z,38.90
2022-10-19T03:58:15.373Z,38.75
2022-10-19T04:00:16.936Z,40.42
2022-10-19T04:02:18.392Z,39.28
2022-10-19T04:04:20.208Z,37.30
2022-10-19T04:06:25.783Z,38.35
2022-10-19T04:08:27.237Z,37.85
2022-10-19T04:10:31.327Z,39.65
2022-10-19T04:12:33.405Z,38.60
2022-10-19T04:14:52.496Z,39.85
2022-10-19T04:16:57.389Z,37.35
2022-10-19T04:18:59.176Z,39.60
2022-10-19T04:21:05.197Z,39.80
2022-10-19T04:23:06.671Z,41.03
2022-10-19T04:25:11.198Z,40.90
2022-10-19T04:27:12.750Z,41.83
2022-10-19T04:29:15.969Z,39.97
2022-10-19T04:31:17.576Z,41.83
2022-10-19T04:33:19.043Z,40.42
2022-10-19T04:35:20.545Z,40.13
2022-10-19T04:37:22.010Z,42.72
2022-10-19T04:39:23.474Z,42.65
2022-10-19T04:41:25.381Z,47.42
2022-10-19T04:43:26.919Z,52.83
2022-10-19T04:45:28.390Z,47.60
2022-10-19T04:47:30.366Z,50.63
2022-10-19T04:49:31.934Z,50.72
2022-10-19T04:51:33.985Z,48.42
2022-10-19T04:53:38.002Z,55.17
2022-10-19T04:55:42.663Z,55.78
2022-10-19T04:57:44.166Z,49.38
2022-10-19T04:59:47.207Z,48.85
2022-10-19T05:01:48.717Z,46.67
2022-10-19T05:03:54.758Z,47.70
2022-10-19T05:05:59.216Z,46.17
2022-10-19T05:08:01.117Z,47.40
2022-10-19T05:10:02.901Z,46.78
2022-10-19T05:12:04.505Z,45.70
2022-10-19T05:14:06.068Z,44.38
2022-10-19T05:16:11.771Z,42.85
2022-10-19T05:18:13.193Z,49.50
2022-10-19T05:20:14.741Z,47.05
2022-10-19T05:22:16.215Z,71.97
2022-10-19T05:24:17.710Z,91.65
2022-10-19T05:26:21.251Z,55.65
2022-10-19T05:28:22.740Z,51.13
2022-10-19T05:30:24.287Z,52.47
2022-10-19T05:32:27.464Z,51.97
2022-10-19T05:34:28.918Z,58.90
2022-10-19T05:36:37.077Z,67.30
2022-10-19T05:38:38.531Z,62.20
2022-10-19T05:40:45.494Z,71.15
2022-10-19T05:42:47.088Z,58.67
2022-10-19T05:44:48.532Z,52.63
2022-10-19T05:46:51.147Z,48.60
2022-10-19T05:48:52.708Z,45.80
2022-10-19T05:50:55.186Z,51.13
2022-10-19T05:52:56.668Z,51.47
2022-10-19T05:54:58.481Z,56.03
2022-10-19T05:57:00.045Z,58.03
2022-10-19T05:59:04.111Z,52.72
2022-10-19T06:01:06.000Z,46.08
2022-10-19T06:03:07.443Z,45.35
2022-10-19T06:05:09.039Z,48.63
2022-10-19T06:07:10.548Z,43.88
2022-10-19T06:09:12.753Z,44.60
2022-10-19T06:11:20.972Z,39.08
2022-10-19T06:13:22.439Z,38.58
2022-10-19T06:15:24.109Z,37.38
2022-10-19T06:17:28.885Z,35.33
2022-10-19T06:19:30.358Z,33.20
2022-10-19T06:21:32.547Z,30.88
2022-10-19T06:23:35.170Z,28.73
2022-10-19T06:25:36.782Z,26.85
2022-10-19T06:27:38.555Z,29.13
2022-10-19T06:29:40.194Z,29.17
2022-10-19T06:31:41.730Z,23.38
2022-10-19T06:33:48.553Z,24.73
2022-10-19T06:35:51.051Z,20.45
2022-10-19T06:37:52.521Z,21.23
2022-10-19T06:39:54.064Z,23.30
2022-10-19T06:41:55.559Z,21.67
2022-10-19T06:43:57.421Z,20.35
2022-10-19T06:45:59.597Z,21.17
2022-10-19T06:48:03.674Z,22.30
2022-10-19T06:50:09.005Z,21.88
2022-10-19T06:52:10.538Z,21.65
2022-10-19T06:54:12.171Z,22.58
2022-10-19T06:56:13.975Z,19.05
2022-10-19T06:58:15.473Z,19.92
2022-10-19T07:00:17.381Z,24.13
2022-10-19T07:02:19.495Z,25.20
2022-10-19T07:04:20.980Z,23.00
2022-10-19T07:06:23.343Z,20.23
2022-10-19T07:08:26.177Z,20.30
2022-10-19T07:10:27.646Z,19.30
2022-10-19T07:12:29.548Z,19.77
2022-10-19T07:14:31.612Z,18.95
2022-10-19T07:16:33.094Z,18.60
2022-10-19T07:18:36.072Z,16.42
2022-10-19T07:20:37.585Z,17.58
2022-10-19T07:22:39.020Z,16.17
2022-10-19T07:24:40.469Z,18.27
2022-10-19T07:26:42.374Z,17.48
2022-10-19T07:28:46.825Z,16.60
2022-10-19T07:30:48.530Z,16.38
2022-10-19T07:32:50.018Z,18.02
2022-10-19T07:34:51.573Z,18.95
2022-10-19T07:36:53.535Z,16.42
2022-10-19T07:38:55.345Z,16.48
2022-10-19T07:41:04.573Z,14.95
2022-10-19T07:43:06.145Z,16.13
2022-10-19T07:45:07.809Z,13.70
2022-10-19T07:47:09.315Z,14.30
2022-10-19T07:49:16.249Z,12.63
2022-10-19T07:51:19.256Z,11.32
2022-10-19T07:53:21.005Z,12.35
2022-10-19T07:55:22.518Z,12.90
2022-10-19T07:57:23.967Z,11.93
2022-10-19T07:59:25.474Z,13.07
2022-10-19T08:01:30.841Z,11.63
2022-10-19T08:06:00.128Z,11.57
2022-10-19T08:08:01.572Z,11.43
2022-10-19T08:10:04.379Z,10.60
2022-10-19T08:12:07.072Z,10.65
2022-10-19T08:14:08.613Z,10.82
2022-10-19T08:16:37.580Z,9.82
2022-10-19T08:18:39.034Z,9.43
2022-10-19T08:20:41.530Z,9.73
2022-10-19T08:22:45.188Z,10.30
2022-10-19T08:24:46.772Z,9.55
2022-10-19T08:26:51.230Z,9.65
2022-10-19T08:28:52.789Z,11.73
2022-10-19T08:30:58.120Z,9.75
2022-10-19T08:32:59.652Z,10.05
2022-10-19T08:35:01.144Z,9.52
2022-10-19T08:37:10.271Z,10.02
2022-10-19T08:39:21.613Z,10.77
2022-10-19T08:41:41.317Z,9.00
2022-10-19T08:46:12.934Z,7.40
2022-10-19T08:48:48.296Z,4.32
2022-10-19T08:50:50.189Z,6.07
2022-10-19T08:52:59.901Z,8.15
2022-10-19T08:55:15.082Z,16.23
2022-10-19T08:57:25.654Z,7.05
2022-10-19T08:59:32.676Z,6.70
2022-10-19T09:01:46.961Z,6.28
2022-10-19T09:04:04.020Z,5.32
2022-10-19T09:06:22.479Z,7.32
2022-10-19T09:08:24.041Z,8.05
2022-10-19T09:10:29.266Z,7.95
2022-10-19T09:12:41.806Z,7.68
2022-10-19T09:15:03.131Z,8.50
2022-10-19T09:17:11.872Z,10.95
2022-10-19T09:19:25.521Z,7.57
2022-10-19T09:21:47.086Z,9.80
2022-10-19T09:24:02.384Z,9.57
2022-10-19T09:26:10.942Z,8.43
2022-10-19T09:28:36.527Z,7.40
2022-10-19T09:30:44.688Z,7.40
2022-10-19T09:32:48.705Z,6.88
2022-10-19T09:34:54.078Z,6.28
2022-10-19T09:36:59.734Z,8.30
2022-10-19T09:39:01.361Z,5.75
2022-10-19T09:41:22.934Z,5.10
2022-10-19T09:43:26.890Z,4.72
2022-10-19T09:45:38.666Z,5.03
2022-10-19T09:47:42.391Z,5.40
2022-10-19T09:49:46.323Z,6.18
2022-10-19T09:51:52.178Z,5.90
2022-10-19T09:53:55.120Z,6.50
2022-10-19T09:56:04.115Z,4.18
2022-10-19T09:58:17.463Z,5.10
2022-10-19T10:00:24.816Z,5.57
2022-10-19T10:02:32.795Z,4.63
2022-10-19T10:04:36.511Z,3.80
2022-10-19T10:06:39.133Z,3.90
2022-10-19T10:08:47.452Z,3.92
2022-10-19T10:11:08.623Z,4.43
2022-10-19T10:13:23.680Z,4.55
2022-10-19T10:15:35.513Z,5.00
2022-10-19T10:17:38.456Z,4.82
2022-10-19T10:19:51.043Z,4.68
2022-10-19T10:21:57.766Z,4.40
2022-10-19T10:24:20.402Z,4.22
2022-10-19T10:26:25.765Z,4.00
2022-10-19T10:28:29.261Z,3.80
2022-10-19T10:30:35.238Z,4.13
2022-10-19T10:32:44.413Z,4.47
2022-10-19T10:35:00.008Z,3.75
2022-10-19T10:37:05.799Z,4.75
2022-10-19T10:39:13.313Z,5.85
2022-10-19T10:41:23.259Z,9.68
2022-10-19T10:45:41.528Z,7.18
2022-10-19T10:47:48.120Z,6.80
2022-10-19T10:49:56.729Z,11.38
2022-10-19T10:52:01.239Z,10.10
2022-10-19T10:54:22.249Z,4.70
2022-10-19T10:56:29.140Z,4.57
2022-10-19T10:58:58.573Z,5.05
2022-10-19T11:01:07.779Z,5.25
2022-10-19T11:03:22.017Z,2.72
2022-10-19T11:05:31.194Z,4.72
2022-10-19T11:07:34.592Z,8.25
2022-10-19T11:09:40.507Z,7.78
2022-10-19T11:11:45.986Z,5.30
2022-10-19T11:13:56.512Z,6.82
2022-10-19T11:16:10.888Z,5.80
2022-10-19T11:18:24.943Z,5.35
2022-10-19T11:20:30.671Z,5.43
2022-10-19T11:22:46.544Z,6.85
2022-10-19T11:24:54.025Z,5.22
2022-10-19T11:27:12.183Z,3.45
2022-10-19T11:29:44.678Z,4.55
2022-10-19T11:31:53.034Z,2.85
2022-10-19T11:34:26.846Z,2.47
2022-10-19T11:36:50.116Z,3.00
2022-10-19T11:39:07.216Z,2.08
2022-10-19T11:41:39.279Z,1.52
2022-10-19T11:44:03.839Z,2.05
2022-10-19T11:46:19.936Z,1.95
2022-10-19T11:48:52.917Z,1.92
2022-10-19T11:51:17.262Z,1.83
2022-10-19T11:53:43.524Z,1.60
2022-10-19T11:56:13.406Z,1.77
2022-10-19T12:03:05.327Z,1.70
2022-10-19T12:05:26.574Z,1.50
2022-10-19T12:07:44.673Z,1.73
2022-10-19T12:10:00.245Z,1.63
2022-10-19T12:12:23.807Z,1.38
2022-10-19T12:14:30.337Z,1.35
2022-10-19T12:16:40.180Z,1.50
2022-10-19T12:18:48.844Z,1.90
2022-10-19T12:20:54.480Z,1.80
2022-10-19T12:22:58.287Z,2.20
2022-10-19T12:25:02.035Z,2.10
2022-10-19T12:27:05.067Z,2.08
2022-10-19T12:29:14.444Z,2.10
2022-10-19T12:31:16.554Z,2.53
2022-10-19T12:33:36.279Z,2.35
2022-10-19T12:35:55.804Z,2.17
2022-10-19T12:38:07.847Z,1.95
2022-10-19T12:40:40.573Z,2.63
2022-10-19T12:43:01.961Z,2.80
2022-10-19T12:45:14.766Z,3.03
2022-10-19T12:47:21.687Z,2.75
2022-10-19T12:49:26.152Z,3.13
2022-10-19T12:51:27.600Z,3.22
2022-10-19T12:53:39.989Z,3.28
2022-10-19T12:55:43.544Z,3.47
2022-10-19T12:57:48.893Z,3.70
2022-10-19T13:00:03.325Z,3.70
2022-10-19T13:02:24.462Z,4.22
2022-10-19T13:04:32.711Z,3.65
2022-10-19T13:06:38.279Z,3.10
2022-10-19T13:08:48.545Z,3.00
2022-10-19T13:11:07.619Z,2.92
2022-10-19T13:13:48.003Z,3.87
2022-10-19T13:15:51.686Z,3.10
2022-10-19T13:17:53.222Z,3.45
2022-10-19T13:20:14.717Z,4.15
2022-10-19T13:22:28.977Z,2.90
2022-10-19T13:24:34.406Z,3.20
2022-10-19T13:26:36.188Z,3.80
2022-10-19T13:28:39.069Z,3.30
2022-10-19T13:30:47.002Z,3.03
2022-10-19T13:32:48.648Z,5.07
2022-10-19T13:34:50.212Z,6.65
2022-10-19T13:37:03.336Z,10.70
2022-10-19T13:39:09.330Z,12.52
2022-10-19T13:41:21.819Z,93.00
2022-10-19T13:43:39.060Z,59.15
2022-10-19T13:45:43.987Z,47.70
2022-10-19T13:47:53.343Z,44.83
2022-10-19T13:50:03.671Z,26.95
2022-10-19T13:52:23.083Z,23.02
2022-10-19T13:54:36.685Z,61.95
2022-10-19T13:57:06.219Z,5.72
2022-10-19T13:59:27.882Z,4.43
2022-10-19T14:01:47.473Z,8.10
2022-10-19T14:04:24.566Z,5.07
2022-10-19T14:06:44.353Z,5.65
2022-10-19T14:08:51.682Z,5.30
2022-10-19T14:11:05.849Z,4.90
2022-10-19T14:13:14.821Z,5.40
2022-10-19T14:15:27.421Z,5.23
2022-10-19T14:17:42.566Z,5.35
2022-10-19T14:19:48.422Z,5.70
2022-10-19T14:21:49.898Z,6.07
2022-10-19T14:23:51.853Z,6.40
2022-10-19T14:25:57.218Z,7.35
2022-10-19T14:28:01.843Z,7.60
2022-10-19T14:30:04.503Z,5.88
2022-10-19T14:32:06.153Z,6.43
2022-10-19T14:34:09.342Z,17.80
2022-10-19T14:36:20.813Z,16.35
2022-10-19T14:38:46.047Z,5.82
2022-10-19T14:40:47.602Z,30.85
2022-10-19T14:42:49.748Z,12.05
2022-10-19T14:44:51.270Z,29.40
2022-10-19T14:46:52.780Z,13.13
2022-10-19T14:48:59.992Z,25.48
2022-10-19T14:51:03.141Z,11.20
2022-10-19T14:53:24.088Z,12.07
2022-10-19T14:55:32.351Z,13.23
2022-10-19T14:57:38.542Z,10.45
2022-10-19T14:59:46.847Z,8.70
2022-10-19T15:01:51.034Z,8.02
2022-10-19T15:03:53.120Z,8.73
2022-10-19T15:05:59.888Z,12.73
2022-10-19T15:08:10.284Z,12.10
2022-10-19T15:10:20.665Z,11.82
2022-10-19T15:12:29.397Z,14.00
2022-10-19T15:14:31.994Z,20.38
2022-10-19T15:16:39.577Z,18.27
2022-10-19T15:18:49.473Z,14.13
2022-10-19T15:21:24.175Z,15.60
2022-10-19T15:23:33.435Z,12.65
2022-10-19T15:25:36.992Z,9.73
2022-10-19T15:27:47.230Z,11.95
2022-10-19T15:29:56.463Z,11.80
2022-10-19T15:32:13.469Z,11.13
2022-10-19T15:34:28.041Z,10.45
2022-10-19T15:36:31.028Z,13.50
2022-10-19T15:38:34.723Z,13.55
2022-10-19T15:40:41.928Z,11.35
2022-10-19T15:42:48.795Z,10.48
2022-10-19T15:44:50.357Z,12.40
2022-10-19T15:47:19.180Z,16.73
2022-10-19T15:49:20.705Z,28.07
2022-10-19T15:51:24.899Z,36.47
2022-10-19T15:53:26.445Z,18.60
2022-10-19T15:55:27.921Z,28.67
2022-10-19T15:57:35.460Z,14.65
2022-10-19T15:59:37.198Z,41.13
2022-10-19T16:01:39.191Z,22.80
2022-10-19T16:03:40.709Z,15.60
2022-10-19T16:05:42.218Z,16.17
2022-10-19T16:07:43.732Z,10.90
2022-10-19T16:09:45.198Z,19.08
2022-10-19T16:11:46.957Z,12.32
2022-10-19T16:13:48.573Z,12.13
2022-10-19T16:15:56.792Z,10.35
2022-10-19T16:18:11.807Z,12.80
2022-10-19T16:20:13.539Z,10.70
2022-10-19T16:22:15.889Z,10.50
2022-10-19T16:24:17.621Z,10.93
2022-10-19T16:26:20.133Z,11.48
2022-10-19T16:28:21.733Z,9.15
2022-10-19T16:30:23.432Z,8.68
2022-10-19T16:32:24.945Z,12.25
2022-10-19T16:34:26.567Z,11.38
2022-10-19T16:36:28.075Z,7.47
2022-10-19T16:38:29.547Z,8.02
2022-10-19T16:40:31.259Z,8.68
2022-10-19T16:42:33.233Z,6.50
2022-10-19T16:44:34.948Z,26.13
2022-10-19T16:46:36.423Z,7.68
2022-10-19T16:48:38.364Z,12.40
2022-10-19T16:50:39.937Z,11.68
2022-10-19T16:52:41.442Z,25.27
2022-10-19T16:54:42.923Z,11.90
2022-10-19T16:56:46.106Z,12.27
2022-10-19T16:58:47.631Z,10.85
2022-10-19T17:00:49.217Z,11.93
2022-10-19T17:02:50.750Z,17.95
2022-10-19T17:04:52.336Z,15.80
2022-10-19T17:06:53.921Z,18.48
2022-10-19T17:09:37.030Z,22.70
2022-10-19T17:11:23.708Z,19.33
2022-10-19T17:13:25.235Z,34.63
2022-10-19T17:15:43.455Z,20.95
2022-10-19T17:17:45.167Z,20.35
2022-10-19T17:19:46.824Z,16.52
2022-10-19T17:21:49.449Z,18.30
2022-10-19T17:23:52.901Z,15.77
2022-10-19T17:25:54.361Z,29.85
2022-10-19T17:27:56.136Z,56.63
2022-10-19T17:29:57.579Z,56.35
2022-10-19T17:31:59.744Z,47.53
2022-10-19T17:34:02.041Z,31.23
2022-10-19T17:36:12.147Z,20.33
2022-10-19T17:38:13.673Z,23.60
2022-10-19T17:40:15.244Z,29.70
2022-10-19T17:42:16.712Z,23.55
2022-10-19T17:44:19.967Z,30.98
2022-10-19T17:46:24.071Z,177.35
2022-10-19T17:48:26.049Z,203.75
2022-10-19T17:50:27.542Z,112.22
2022-10-19T17:52:29.000Z,63.35
2022-10-19T17:54:30.730Z,46.17
2022-10-19T17:56:36.379Z,54.30
2022-10-19T17:58:39.919Z,46.17
2022-10-19T18:00:41.693Z,25.90
2022-10-19T18:02:46.515Z,68.50
2022-10-19T18:04:48.041Z,61.42
2022-10-19T18:06:49.628Z,41.05
2022-10-19T18:08:52.888Z,49.33
2022-10-19T18:11:00.093Z,25.23
2022-10-19T18:13:01.613Z,30.40
2022-10-19T18:15:03.361Z,25.52
2022-10-19T18:17:05.345Z,20.05
2022-10-19T18:19:08.067Z,22.17
2022-10-19T18:21:12.922Z,25.23
2022-10-19T18:23:14.515Z,22.58
2022-10-19T18:25:21.796Z,53.75
2022-10-19T18:27:32.822Z,30.73
2022-10-19T18:29:34.625Z,19.98
2022-10-19T18:31:38.488Z,21.23
2022-10-19T18:33:40.806Z,21.15
2022-10-19T18:35:42.451Z,22.75
2022-10-19T18:37:44.038Z,21.33
2022-10-19T18:39:45.649Z,20.73
2022-10-19T18:41:51.940Z,23.70
2022-10-19T18:43:59.645Z,18.75
2022-10-19T18:46:01.438Z,21.65
2022-10-19T18:48:03.150Z,19.67
2022-10-19T18:50:05.379Z,23.35
2022-10-19T18:52:07.016Z,21.75
2022-10-19T18:54:08.744Z,24.55
2022-10-19T18:56:12.615Z,23.75
2022-10-19T18:58:14.052Z,40.78
2022-10-19T19:00:15.577Z,40.88
2022-10-19T19:02:22.733Z,36.72
2022-10-19T19:04:29.807Z,26.00
2022-10-19T19:06:32.877Z,28.63
2022-10-19T19:08:34.964Z,29.40
2022-10-19T19:10:36.493Z,29.67
2022-10-19T19:12:38.203Z,28.13
2022-10-19T19:14:41.899Z,26.83
2022-10-19T19:16:45.042Z,26.65
2022-10-19T19:18:47.245Z,25.95
2022-10-19T19:20:48.726Z,24.88
2022-10-19T19:22:50.191Z,24.98
2022-10-19T19:24:53.265Z,26.95
2022-10-19T19:26:54.911Z,26.13
2022-10-19T19:28:57.523Z,26.38
2022-10-19T19:30:59.059Z,28.67
2022-10-19T19:33:00.555Z,29.77
2022-10-19T19:35:02.043Z,28.67
2022-10-19T19:37:06.165Z,30.95
2022-10-19T19:39:10.430Z,28.98
2022-10-19T19:41:14.273Z,26.63
2022-10-19T19:43:16.016Z,28.52
2022-10-19T19:45:17.470Z,27.15
2022-10-19T19:47:19.470Z,31.40
2022-10-19T19:49:20.963Z,29.48
2022-10-19T19:51:22.523Z,27.50
2022-10-19T19:53:24.051Z,25.90
2022-10-19T19:55:26.347Z,25.65
2022-10-19T19:57:27.897Z,24.75
2022-10-19T19:59:30.379Z,25.77
2022-10-19T20:01:32.600Z,24.90
2022-10-19T20:03:34.136Z,27.92
2022-10-19T20:05:35.597Z,28.20
2022-10-19T20:07:37.467Z,29.50
2022-10-19T20:09:39.092Z,26.55
2022-10-19T20:11:42.685Z,23.77
2022-10-19T20:13:45.830Z,24.13
2022-10-19T20:15:47.389Z,22.52
2022-10-19T20:17:48.845Z,25.98
2022-10-19T20:19:50.467Z,23.58
2022-10-19T20:21:52.847Z,23.25
2022-10-19T20:23:54.368Z,22.92
2022-10-19T20:25:56.411Z,36.25
2022-10-19T20:27:57.952Z,83.93
2022-10-19T20:29:59.439Z,68.70
2022-10-19T20:32:00.922Z,46.33
2022-10-19T20:34:07.652Z,41.95
2022-10-19T20:36:10.751Z,36.67
2022-10-19T20:38:12.206Z,35.92
2022-10-19T20:40:13.741Z,37.90
2022-10-19T20:42:16.383Z,33.33
2022-10-19T20:44:17.853Z,30.60
2022-10-19T20:46:22.301Z,28.30
2022-10-19T20:48:23.784Z,27.83
2022-10-19T20:50:25.390Z,38.17
2022-10-19T20:52:26.876Z,29.65
2022-10-19T20:54:28.459Z,27.52
2022-10-19T20:56:32.224Z,29.77
2022-10-19T20:58:34.201Z,27.05
2022-10-19T21:00:35.648Z,25.50
2022-10-19T21:02:37.345Z,26.58
2022-10-19T21:04:39.357Z,27.48
2022-10-19T21:06:48.833Z,28.10
2022-10-19T21:08:51.138Z,29.17
2022-10-19T21:10:52.654Z,26.90
2022-10-19T21:12:54.191Z,25.17
2022-10-19T21:14:55.707Z,30.83
2022-10-19T21:16:58.524Z,47.85
2022-10-19T21:19:01.068Z,53.72
2022-10-19T21:21:11.031Z,46.78
2022-10-19T21:23:12.521Z,31.88
2022-10-19T21:25:13.988Z,37.38
2022-10-19T21:27:15.454Z,38.15
2022-10-19T21:29:17.750Z,39.20
2022-10-19T21:31:20.376Z,41.22
2022-10-19T21:33:25.490Z,37.50
2022-10-19T21:35:26.918Z,38.67
2022-10-19T21:37:29.662Z,30.52
2022-10-19T21:39:31.123Z,31.60
2022-10-19T21:41:32.604Z,39.03
2022-10-19T21:43:35.329Z,37.78
2022-10-19T21:45:39.781Z,37.78
2022-10-19T21:47:41.387Z,36.72
2022-10-19T21:49:42.826Z,34.88
2022-10-19T21:51:52.109Z,36.25
2022-10-19T21:53:53.656Z,28.00
2022-10-19T21:55:59.068Z,26.23
2022-10-19T21:58:00.671Z,24.45
2022-10-19T22:00:02.125Z,26.67
2022-10-19T22:02:03.701Z,30.35
2022-10-19T22:04:06.915Z,31.38
2022-10-19T22:06:09.147Z,25.13
2022-10-19T22:08:10.623Z,23.27
2022-10-19T22:10:12.548Z,20.38
2022-10-19T22:14:20.357Z,30.13
2022-10-19T22:16:22.006Z,28.70
2022-10-19T22:18:23.574Z,29.77
2022-10-19T22:20:25.033Z,30.13
2022-10-19T22:22:26.523Z,30.33
2022-10-19T22:24:28.112Z,35.47
2022-10-19T22:26:32.489Z,31.23
2022-10-19T22:28:33.942Z,28.95
2022-10-19T22:32:37.661Z,25.77
2022-10-19T22:34:39.709Z,28.60
2022-10-19T22:36:42.053Z,65.70
2022-10-19T22:38:43.478Z,114.38
2022-10-19T22:40:54.075Z,121.43
2022-10-19T22:42:55.546Z,72.70
2022-10-19T22:44:57.085Z,53.15
2022-10-19T22:46:58.929Z,54.72
2022-10-19T22:49:00.746Z,41.83
2022-10-19T22:51:02.302Z,32.22
2022-10-19T22:53:03.819Z,28.83
2022-10-19T22:55:05.724Z,32.40
2022-10-19T22:57:07.323Z,29.77
2022-10-19T22:59:09.392Z,24.20
2022-10-19T23:01:13.710Z,23.67
2022-10-19T23:03:15.228Z,24.45
2022-10-19T23:05:16.838Z,27.67
2022-10-19T23:07:18.373Z,31.83
2022-10-19T23:09:19.983Z,30.42
2022-10-19T23:11:21.737Z,27.55
2022-10-19T23:13:23.330Z,32.13
2022-10-19T23:15:24.886Z,33.13
2022-10-19T23:17:26.387Z,43.05
2022-10-19T23:19:27.973Z,74.50
2022-10-19T23:21:29.530Z,89.63
2022-10-19T23:23:32.235Z,53.20
2022-10-19T23:25:33.783Z,45.85
2022-10-19T23:27:35.759Z,48.35
2022-10-19T23:29:37.523Z,41.85
2022-10-19T23:31:39.081Z,40.22
2022-10-19T23:33:41.165Z,34.72
2022-10-19T23:35:42.752Z,29.67
2022-10-19T23:37:44.277Z,27.88
2022-10-19T23:39:45.828Z,26.27
2022-10-19T23:41:47.297Z,24.95
2022-10-19T23:43:49.007Z,27.55
2022-10-19T23:45:50.450Z,27.63
2022-10-19T23:47:51.925Z,31.20
2022-10-19T23:49:53.535Z,33.92
2022-10-19T23:51:55.016Z,29.23
2022-10-19T23:53:56.660Z,29.55
2022-10-19T23:56:06.055Z,29.95
2022-10-19T23:58:07.487Z,26.63
